createdAt,value
2019-04-14T00:01:21.634Z,55.60
2019-04-14T00:03:50.144Z,55.20
2019-04-14T00:06:18.000Z,56.20
2019-04-14T00:08:45.884Z,54.40
2019-04-14T00:11:12.613Z,55.30
2019-04-14T00:13:39.299Z,54.60
2019-04-14T00:16:05.958Z,55.40
2019-04-14T00:18:33.667Z,55.30
2019-04-14T00:21:00.455Z,55.80
2019-04-14T00:23:28.209Z,56.40
2019-04-14T00:26:16.221Z,56.40
2019-04-14T00:28:42.892Z,57.40
2019-04-14T00:31:09.438Z,56.20
2019-04-14T00:33:36.685Z,56.20
2019-04-14T00:38:54.354Z,56.60
2019-04-14T00:41:46.715Z,56.80
2019-04-14T00:44:10.002Z,56.00
2019-04-14T00:46:45.285Z,56.60
2019-04-14T00:49:12.068Z,56.60
2019-04-14T00:51:40.602Z,56.50
2019-04-14T00:54:06.874Z,56.10
2019-04-14T00:56:34.356Z,56.10
2019-04-14T00:59:01.214Z,56.30
2019-04-14T01:01:28.601Z,56.90
2019-04-14T01:03:55.394Z,56.80
2019-04-14T01:06:22.962Z,56.40
2019-04-14T01:08:50.998Z,56.70
2019-04-14T01:11:18.184Z,56.70
2019-04-14T01:13:46.157Z,56.90
2019-04-14T01:16:17.420Z,56.70
2019-04-14T01:18:42.888Z,57.50
2019-04-14T01:21:11.035Z,57.40
2019-04-14T01:23:39.076Z,57.80
2019-04-14T01:26:07.115Z,58.20
2019-04-14T01:28:35.356Z,58.20
2019-04-14T01:31:03.237Z,58.80
2019-04-14T01:33:31.488Z,59.10
2019-04-14T01:35:59.502Z,58.90
2019-04-14T01:38:27.537Z,59.40
2019-04-14T01:40:55.280Z,59.20
2019-04-14T01:43:23.442Z,60.10
2019-04-14T01:46:03.992Z,58.90
2019-04-14T01:48:19.222Z,59.00
2019-04-14T01:51:04.887Z,60.00
2019-04-14T01:53:51.011Z,59.00
2019-04-14T01:56:29.528Z,59.90
2019-04-14T01:58:57.940Z,59.60
2019-04-14T02:04:18.548Z,59.90
2019-04-14T02:06:46.202Z,59.60
2019-04-14T02:09:13.995Z,58.60
2019-04-14T02:11:40.634Z,59.20
2019-04-14T02:14:08.255Z,59.20
2019-04-14T02:16:41.989Z,59.70
2019-04-14T02:19:04.504Z,59.30
2019-04-14T02:21:32.318Z,59.30
2019-04-14T02:24:00.445Z,59.30
2019-04-14T02:26:28.564Z,59.20
2019-04-14T02:28:55.394Z,59.10
2019-04-14T02:31:46.887Z,59.60
2019-04-14T02:36:47.997Z,59.40
2019-04-14T02:39:13.553Z,59.80
2019-04-14T02:41:47.093Z,59.80
2019-04-14T02:49:04.536Z,59.80
2019-04-14T02:51:35.014Z,59.30
2019-04-14T02:54:07.452Z,59.70
2019-04-14T02:56:32.587Z,59.30
2019-04-14T02:58:59.909Z,60.00
2019-04-14T03:03:56.339Z,59.60
2019-04-14T03:06:29.201Z,59.30
2019-04-14T03:08:59.066Z,59.80
2019-04-14T03:11:25.350Z,59.80
2019-04-14T03:13:51.101Z,59.70
2019-04-14T03:16:27.208Z,59.80
2019-04-14T03:18:50.091Z,59.90
2019-04-14T03:21:38.074Z,60.10
2019-04-14T03:24:10.938Z,60.60
2019-04-14T03:26:44.993Z,60.40
2019-04-14T03:29:20.899Z,60.60
2019-04-14T03:39:15.454Z,60.70
2019-04-14T03:44:10.144Z,60.90
2019-04-14T03:46:43.321Z,61.10
2019-04-14T03:49:26.544Z,61.00
2019-04-14T03:51:55.829Z,61.30
2019-04-14T03:53:58.748Z,61.60
2019-04-14T03:56:29.186Z,61.50
2019-04-14T03:58:55.759Z,64.30
2019-04-14T04:01:23.646Z,61.10
2019-04-14T04:03:50.340Z,60.40
2019-04-14T04:06:18.085Z,60.60
2019-04-14T04:08:45.072Z,60.50
2019-04-14T04:11:13.032Z,60.50
2019-04-14T04:13:39.549Z,59.80
2019-04-14T04:16:16.614Z,60.10
2019-04-14T04:18:50.984Z,60.20
2019-04-14T04:21:23.102Z,60.10
2019-04-14T04:26:32.171Z,60.00
2019-04-14T04:31:37.678Z,60.30
2019-04-14T04:34:29.417Z,59.40
2019-04-14T04:37:06.791Z,59.80
2019-04-14T04:39:36.497Z,59.70
2019-04-14T04:42:04.730Z,59.20
2019-04-14T04:44:31.721Z,60.30
2019-04-14T04:46:59.135Z,59.20
2019-04-14T04:49:28.176Z,57.90
2019-04-14T04:51:55.125Z,57.60
2019-04-14T04:54:21.797Z,57.40
2019-04-14T04:56:49.182Z,56.30
2019-04-14T04:59:16.999Z,56.60
2019-04-14T05:01:45.061Z,56.60
2019-04-14T05:04:11.920Z,55.50
2019-04-14T05:06:55.036Z,56.00
2019-04-14T05:12:32.623Z,54.40
2019-04-14T05:15:01.282Z,54.20
2019-04-14T05:17:29.918Z,55.00
2019-04-14T05:19:56.438Z,53.30
2019-04-14T05:22:24.621Z,51.70
2019-04-14T05:24:52.795Z,52.50
2019-04-14T05:27:20.979Z,52.10
2019-04-14T05:29:47.545Z,52.30
2019-04-14T05:32:15.207Z,53.00
2019-04-14T05:34:41.803Z,52.50
2019-04-14T05:37:09.257Z,53.50
2019-04-14T05:39:36.009Z,53.30
2019-04-14T05:42:08.618Z,52.00
2019-04-14T05:44:31.891Z,52.90
2019-04-14T05:46:59.975Z,54.60
2019-04-14T05:49:34.016Z,54.40
2019-04-14T05:51:54.918Z,54.80
2019-04-14T05:54:21.533Z,54.70
2019-04-14T05:56:47.984Z,54.40
2019-04-14T05:59:15.549Z,54.40
2019-04-14T06:01:42.488Z,54.20
2019-04-14T06:04:09.339Z,54.30
2019-04-14T06:06:36.197Z,54.40
2019-04-14T06:09:04.570Z,54.10
2019-04-14T06:11:31.155Z,54.20
2019-04-14T06:13:57.713Z,54.50
2019-04-14T06:16:44.131Z,54.10
2019-04-14T06:19:10.699Z,53.50
2019-04-14T06:21:37.299Z,53.90
2019-04-14T06:24:03.755Z,53.70
2019-04-14T06:26:33.650Z,53.30
2019-04-14T06:29:00.305Z,54.20
2019-04-14T06:31:34.829Z,54.00
2019-04-14T06:34:03.294Z,54.10
2019-04-14T06:36:46.588Z,53.90
2019-04-14T06:39:15.178Z,52.60
2019-04-14T06:41:42.015Z,52.10
2019-04-14T06:44:08.857Z,52.80
2019-04-14T06:46:35.754Z,52.00
2019-04-14T06:49:02.550Z,51.30
2019-04-14T06:51:29.405Z,52.40
2019-04-14T06:53:56.256Z,51.80
2019-04-14T06:56:22.982Z,51.10
2019-04-14T06:58:49.537Z,50.70
2019-04-14T07:01:16.168Z,51.10
2019-04-14T07:03:42.818Z,51.80
2019-04-14T07:06:09.514Z,50.60
2019-04-14T07:08:36.223Z,50.60
2019-04-14T07:11:03.074Z,50.90
2019-04-14T07:13:29.670Z,50.20
2019-04-14T07:15:56.286Z,51.60
2019-04-14T07:18:22.882Z,50.50
2019-04-14T07:20:49.383Z,50.70
2019-04-14T07:23:16.017Z,50.20
2019-04-14T07:25:42.623Z,49.30
2019-04-14T07:28:09.322Z,49.70
2019-04-14T07:30:49.441Z,49.50
2019-04-14T07:33:37.594Z,49.90
2019-04-14T07:36:11.582Z,50.40
2019-04-14T07:41:25.155Z,50.10
2019-04-14T07:44:11.524Z,49.60
2019-04-14T07:46:52.134Z,50.80
2019-04-14T07:49:20.577Z,49.90
2019-04-14T07:51:51.803Z,49.40
2019-04-14T07:54:36.770Z,50.60
2019-04-14T07:57:21.623Z,50.70
2019-04-14T08:00:10.204Z,50.20
2019-04-14T08:02:41.484Z,50.20
2019-04-14T08:05:30.626Z,49.50
2019-04-14T08:07:57.142Z,50.50
2019-04-14T08:10:23.760Z,48.80
2019-04-14T08:12:50.438Z,50.80
2019-04-14T08:15:16.995Z,50.00
2019-04-14T08:17:43.758Z,47.10
2019-04-14T08:20:10.341Z,46.10
2019-04-14T08:22:37.029Z,42.90
2019-04-14T08:25:04.583Z,41.10
2019-04-14T08:27:31.297Z,41.20
2019-04-14T08:29:57.865Z,39.20
2019-04-14T08:32:24.661Z,36.20
2019-04-14T08:34:51.507Z,37.10
2019-04-14T08:37:18.133Z,34.70
2019-04-14T08:39:45.188Z,34.30
2019-04-14T08:42:28.927Z,33.90
2019-04-14T08:44:57.210Z,34.60
2019-04-14T08:47:25.520Z,34.00
2019-04-14T08:50:05.956Z,33.90
2019-04-14T08:52:37.496Z,33.30
2019-04-14T08:59:02.573Z,37.40
2019-04-14T09:01:31.047Z,37.90
2019-04-14T09:04:05.182Z,33.70
2019-04-14T09:06:45.594Z,33.70
2019-04-14T09:09:14.076Z,33.40
2019-04-14T09:11:54.561Z,34.10
2019-04-14T09:14:21.143Z,34.00
2019-04-14T09:17:09.688Z,33.90
2019-04-14T09:19:36.307Z,35.40
2019-04-14T09:22:02.958Z,33.40
2019-04-14T09:24:29.618Z,32.70
2019-04-14T09:26:56.369Z,34.00
2019-04-14T09:29:23.008Z,33.70
2019-04-14T09:31:49.678Z,30.90
2019-04-14T09:34:16.262Z,32.90
2019-04-14T09:36:42.730Z,33.80
2019-04-14T09:39:09.414Z,31.10
2019-04-14T09:41:35.885Z,32.20
2019-04-14T09:44:02.542Z,33.10
2019-04-14T09:46:29.234Z,32.80
2019-04-14T09:48:55.672Z,32.60
2019-04-14T09:51:22.238Z,31.00
2019-04-14T09:53:48.904Z,33.30
2019-04-14T09:56:15.444Z,33.60
2019-04-14T09:58:41.878Z,30.50
2019-04-14T10:01:09.175Z,32.50
2019-04-14T10:03:36.861Z,33.60
2019-04-14T10:06:03.534Z,32.80
2019-04-14T10:08:30.190Z,31.50
2019-04-14T10:10:56.752Z,34.30
2019-04-14T10:13:23.360Z,33.60
2019-04-14T10:15:49.926Z,33.60
2019-04-14T10:18:17.861Z,35.10
2019-04-14T10:20:44.667Z,35.10
2019-04-14T10:23:11.115Z,34.20
2019-04-14T10:25:37.674Z,34.90
2019-04-14T10:28:05.288Z,34.00
2019-04-14T10:30:31.861Z,34.60
2019-04-14T10:32:58.361Z,33.40
2019-04-14T10:35:24.950Z,33.30
2019-04-14T10:37:51.531Z,34.20
2019-04-14T10:40:18.150Z,33.20
2019-04-14T10:42:44.683Z,34.10
2019-04-14T10:45:11.255Z,33.40
2019-04-14T10:47:38.020Z,34.10
2019-04-14T10:50:04.691Z,33.50
2019-04-14T10:52:31.392Z,33.90
2019-04-14T10:54:57.873Z,33.30
2019-04-14T10:57:24.575Z,34.20
2019-04-14T10:59:51.038Z,34.50
2019-04-14T11:02:17.594Z,34.30
2019-04-14T11:04:44.155Z,34.20
2019-04-14T11:07:12.426Z,34.60
2019-04-14T11:09:39.093Z,34.60
2019-04-14T11:12:05.924Z,36.40
2019-04-14T11:14:32.699Z,36.80
2019-04-14T11:16:59.205Z,37.40
2019-04-14T11:19:25.971Z,36.80
2019-04-14T11:21:54.275Z,37.60
2019-04-14T11:24:21.016Z,41.10
2019-04-14T11:26:47.571Z,36.10
2019-04-14T11:29:14.246Z,36.10
2019-04-14T11:31:54.519Z,35.60
2019-04-14T11:37:03.826Z,35.10
2019-04-14T11:39:30.520Z,38.90
2019-04-14T11:41:57.116Z,35.90
2019-04-14T11:44:23.838Z,37.30
2019-04-14T11:46:50.298Z,37.20
2019-04-14T11:49:16.869Z,37.00
2019-04-14T11:51:54.608Z,37.80
2019-04-14T11:54:12.439Z,37.20
2019-04-14T11:56:39.057Z,37.50
2019-04-14T11:59:05.611Z,38.10
2019-04-14T12:01:50.326Z,38.70
2019-04-14T12:04:27.324Z,36.80
2019-04-14T12:12:10.682Z,37.90
2019-04-14T12:14:38.170Z,38.20
2019-04-14T12:17:04.847Z,39.30
2019-04-14T12:19:31.423Z,38.40
2019-04-14T12:22:07.735Z,40.00
2019-04-14T12:24:31.346Z,36.90
2019-04-14T12:26:57.936Z,42.10
2019-04-14T12:29:24.605Z,38.00
2019-04-14T12:31:51.209Z,38.10
2019-04-14T12:34:18.532Z,37.60
2019-04-14T12:36:45.266Z,38.10
2019-04-14T12:39:22.825Z,40.00
2019-04-14T12:41:51.203Z,42.80
2019-04-14T12:47:40.092Z,37.30
2019-04-14T12:50:06.799Z,36.30
2019-04-14T12:52:33.376Z,36.80
2019-04-14T12:55:00.341Z,36.70
2019-04-14T12:57:30.318Z,38.70
2019-04-14T12:59:56.984Z,40.90
2019-04-14T13:02:25.442Z,38.80
2019-04-14T13:04:52.160Z,40.80
2019-04-14T13:07:18.745Z,40.40
2019-04-14T13:09:45.306Z,41.70
2019-04-14T13:12:12.008Z,39.40
2019-04-14T13:14:38.429Z,41.30
2019-04-14T13:17:05.095Z,40.30
2019-04-14T13:19:31.560Z,40.20
2019-04-14T13:21:58.018Z,43.20
2019-04-14T13:24:24.620Z,39.00
2019-04-14T13:26:54.703Z,38.90
2019-04-14T13:29:21.331Z,39.60
2019-04-14T13:31:47.949Z,43.70
2019-04-14T13:34:14.522Z,42.50
2019-04-14T13:36:41.218Z,40.60
2019-04-14T13:39:07.811Z,39.10
2019-04-14T13:41:35.656Z,39.20
2019-04-14T13:44:02.199Z,41.10
2019-04-14T13:46:28.858Z,38.00
2019-04-14T13:48:57.346Z,40.20
2019-04-14T13:51:23.903Z,39.70
2019-04-14T13:53:50.595Z,37.20
2019-04-14T13:56:17.190Z,40.20
2019-04-14T13:58:43.790Z,40.40
2019-04-14T14:01:12.440Z,40.00
2019-04-14T14:03:38.964Z,40.60
2019-04-14T14:06:05.391Z,41.90
2019-04-14T14:08:31.917Z,40.30
2019-04-14T14:11:00.386Z,40.40
2019-04-14T14:13:34.419Z,39.70
2019-04-14T14:16:19.447Z,39.10
2019-04-14T14:18:47.862Z,40.60
2019-04-14T14:21:24.887Z,43.20
2019-04-14T14:23:53.403Z,43.10
2019-04-14T14:29:22.113Z,41.70
2019-04-14T14:31:48.672Z,42.00
2019-04-14T14:34:15.280Z,42.80
2019-04-14T14:36:41.735Z,40.80
2019-04-14T14:39:09.814Z,41.40
2019-04-14T14:41:36.378Z,40.40
2019-04-14T14:44:02.858Z,42.90
2019-04-14T14:46:39.867Z,42.00
2019-04-14T14:52:14.008Z,44.20
2019-04-14T14:54:40.563Z,44.60
2019-04-14T14:57:07.055Z,45.00
2019-04-14T14:59:33.742Z,46.60
2019-04-14T15:02:00.354Z,45.80
2019-04-14T15:04:26.899Z,46.20
2019-04-14T15:06:53.477Z,47.80
2019-04-14T15:09:20.181Z,46.00
2019-04-14T15:11:46.763Z,46.60
2019-04-14T15:14:13.341Z,46.80
2019-04-14T15:16:40.013Z,47.10
2019-04-14T15:19:06.585Z,47.40
2019-04-14T15:21:33.312Z,48.30
2019-04-14T15:23:59.791Z,45.80
2019-04-14T15:26:26.447Z,44.10
2019-04-14T15:28:53.062Z,46.10
2019-04-14T15:31:20.813Z,46.20
2019-04-14T15:33:47.621Z,47.00
2019-04-14T15:36:34.075Z,48.10
2019-04-14T15:39:00.634Z,45.70
2019-04-14T15:41:27.292Z,44.00
2019-04-14T15:43:53.879Z,45.60
2019-04-14T15:46:20.483Z,44.00
2019-04-14T15:48:47.042Z,46.00
2019-04-14T15:51:13.590Z,44.90
2019-04-14T15:53:40.046Z,49.30
2019-04-14T15:56:07.719Z,45.40
2019-04-14T16:01:44.049Z,45.70
2019-04-14T16:07:32.278Z,45.40
2019-04-14T16:10:09.785Z,48.40
2019-04-14T16:12:55.005Z,46.40
2019-04-14T16:20:58.557Z,48.20
2019-04-14T16:23:25.115Z,48.40
2019-04-14T16:25:53.502Z,48.20
2019-04-14T16:28:21.871Z,49.60
2019-04-14T16:34:01.533Z,50.00
2019-04-14T16:36:28.293Z,49.50
2019-04-14T16:38:54.997Z,50.20
2019-04-14T16:41:21.500Z,50.30
2019-04-14T16:43:48.085Z,50.40
2019-04-14T16:46:14.742Z,50.40
2019-04-14T16:48:41.439Z,50.40
2019-04-14T16:51:09.865Z,51.40
2019-04-14T16:53:38.393Z,51.30
2019-04-14T16:56:15.825Z,51.60
2019-04-14T16:58:44.214Z,51.40
2019-04-14T17:01:13.015Z,51.50
2019-04-14T17:03:39.666Z,51.40
2019-04-14T17:06:06.130Z,50.50
2019-04-14T17:08:32.656Z,51.30
2019-04-14T17:10:59.365Z,51.50
2019-04-14T17:13:27.773Z,51.80
2019-04-14T17:18:55.868Z,51.60
2019-04-14T17:21:33.689Z,52.90
2019-04-14T17:24:16.033Z,53.20
2019-04-14T17:26:51.395Z,53.90
2019-04-14T17:29:34.952Z,54.80
2019-04-14T17:32:21.601Z,55.50
2019-04-14T17:35:16.201Z,56.50
2019-04-14T17:37:53.467Z,59.60
2019-04-14T17:43:23.425Z,58.60
2019-04-14T17:46:05.124Z,58.80
2019-04-14T17:48:50.925Z,58.90
2019-04-14T17:51:47.793Z,59.10
2019-04-14T17:54:28.606Z,59.60
2019-04-14T17:56:49.702Z,59.50
2019-04-14T17:59:18.246Z,60.20
2019-04-14T18:01:58.477Z,60.70
2019-04-14T18:04:26.988Z,60.90
2019-04-14T18:07:04.478Z,61.00
2019-04-14T18:09:38.935Z,61.30
2019-04-14T18:12:13.437Z,61.10
2019-04-14T18:14:44.703Z,61.50
2019-04-14T18:17:28.002Z,61.40
2019-04-14T18:19:56.527Z,61.40
2019-04-14T18:22:22.973Z,61.80
2019-04-14T18:24:49.614Z,62.60
2019-04-14T18:27:37.706Z,61.80
2019-04-14T18:30:06.438Z,63.20
2019-04-14T18:32:34.957Z,62.60
2019-04-14T18:35:03.366Z,62.80
2019-04-14T18:37:35.141Z,63.40
2019-04-14T18:40:06.630Z,65.70
2019-04-14T18:42:49.846Z,63.40
2019-04-14T18:45:18.348Z,64.20
2019-04-14T18:47:52.789Z,65.00
2019-04-14T18:50:21.138Z,64.00
2019-04-14T18:53:07.609Z,64.10
2019-04-14T18:55:38.842Z,64.00
2019-04-14T18:58:15.918Z,65.20
2019-04-14T19:00:44.274Z,65.40
2019-04-14T19:03:10.877Z,64.90
2019-04-14T19:05:37.485Z,65.50
2019-04-14T19:08:04.050Z,65.50
2019-04-14T19:10:30.769Z,65.80
2019-04-14T19:12:59.147Z,65.30
2019-04-14T19:18:19.761Z,65.70
2019-04-14T19:23:27.274Z,66.80
2019-04-14T19:26:13.607Z,66.30
2019-04-14T19:28:40.282Z,66.60
2019-04-14T19:31:07.012Z,66.40
2019-04-14T19:33:33.539Z,67.00
2019-04-14T19:36:00.145Z,66.80
2019-04-14T19:38:26.757Z,66.90
2019-04-14T19:40:53.565Z,68.10
2019-04-14T19:43:23.922Z,67.50
2019-04-14T19:45:48.773Z,67.40
2019-04-14T19:48:15.366Z,67.40
2019-04-14T19:50:42.022Z,67.70
2019-04-14T19:53:08.734Z,67.70
2019-04-14T19:55:37.246Z,67.90
2019-04-14T19:58:03.567Z,67.70
2019-04-14T20:00:30.202Z,67.50
2019-04-14T20:02:56.739Z,67.70
2019-04-14T20:05:23.318Z,67.50
2019-04-14T20:08:09.766Z,67.80
2019-04-14T20:10:36.434Z,68.20
2019-04-14T20:13:03.130Z,68.00
2019-04-14T20:23:32.554Z,67.40
2019-04-14T20:26:15.863Z,67.60
2019-04-14T20:28:47.074Z,67.50
2019-04-14T20:31:18.278Z,67.30
2019-04-14T20:33:44.777Z,67.30
2019-04-14T20:36:11.373Z,67.10
2019-04-14T20:38:38.068Z,67.00
2019-04-14T20:41:04.654Z,67.10
2019-04-14T20:43:53.709Z,66.70
2019-04-14T20:46:20.319Z,68.20
2019-04-14T20:48:46.874Z,66.20
2019-04-14T20:51:17.274Z,66.20
2019-04-14T20:53:43.918Z,66.40
2019-04-14T20:56:10.409Z,66.10
2019-04-14T20:58:36.853Z,66.10
2019-04-14T21:01:05.281Z,65.70
2019-04-14T21:03:44.036Z,65.90
2019-04-14T21:06:25.338Z,67.00
2019-04-14T21:09:12.453Z,65.30
2019-04-14T21:12:00.982Z,68.60
2019-04-14T21:17:36.451Z,69.60
2019-04-14T21:20:14.045Z,64.80
2019-04-14T21:22:46.193Z,66.50
2019-04-14T21:25:17.916Z,63.90
2019-04-14T21:28:01.293Z,63.90
2019-04-14T21:30:32.372Z,63.40
2019-04-14T21:33:15.669Z,63.50
2019-04-14T21:35:50.083Z,63.30
2019-04-14T21:38:27.987Z,62.60
2019-04-14T21:40:56.590Z,62.80
2019-04-14T21:43:23.572Z,61.80
2019-04-14T21:45:50.063Z,62.80
2019-04-14T21:48:16.789Z,62.20
2019-04-14T21:50:43.497Z,61.70
2019-04-14T21:53:09.984Z,61.70
2019-04-14T21:55:36.670Z,61.50
2019-04-14T21:58:22.396Z,61.30
2019-04-14T22:01:00.278Z,62.30
2019-04-14T22:03:32.350Z,62.80
2019-04-14T22:06:08.091Z,64.60
2019-04-14T22:08:42.838Z,61.20
2019-04-14T22:11:14.073Z,61.00
2019-04-14T22:13:46.154Z,61.50
2019-04-14T22:16:17.438Z,62.50
2019-04-14T22:18:48.233Z,60.10
2019-04-14T22:21:15.314Z,59.80
2019-04-14T22:23:42.124Z,62.30
2019-04-14T22:26:09.030Z,60.10
2019-04-14T22:28:35.831Z,58.70
2019-04-14T22:31:02.657Z,58.40
2019-04-14T22:33:29.246Z,60.00
2019-04-14T22:35:56.047Z,59.60
2019-04-14T22:38:22.936Z,59.90
2019-04-14T22:40:49.486Z,59.70
2019-04-14T22:43:16.209Z,59.60
2019-04-14T22:45:43.294Z,60.00
2019-04-14T22:48:10.250Z,60.10
2019-04-14T22:50:36.854Z,60.20
2019-04-14T22:53:03.436Z,60.30
2019-04-14T22:55:30.319Z,59.70
2019-04-14T22:57:56.735Z,60.00
2019-04-14T23:04:04.322Z,59.90
2019-04-14T23:06:35.543Z,63.00
2019-04-14T23:11:56.167Z,60.30
2019-04-14T23:14:40.973Z,60.40
2019-04-14T23:17:09.319Z,60.00
2019-04-14T23:19:46.569Z,60.60
2019-04-14T23:22:14.861Z,60.80
2019-04-14T23:27:21.587Z,61.20
2019-04-14T23:29:48.150Z,61.00
2019-04-14T23:32:14.966Z,60.80
2019-04-14T23:34:41.653Z,61.10
2019-04-14T23:37:08.341Z,60.80
2019-04-14T23:39:34.950Z,61.20
2019-04-14T23:42:01.628Z,61.20
2019-04-14T23:44:28.228Z,61.40
2019-04-14T23:46:54.824Z,61.00
2019-04-14T23:49:21.527Z,60.80
2019-04-14T23:51:48.114Z,60.30
2019-04-14T23:54:15.014Z,61.20
2019-04-14T23:56:41.737Z,61.10
2019-04-14T23:59:08.278Z,61.10
